sensor_id;sensor_type;location;lat;lon;timestamp;pressure;altitude;pressure_sealevel;temperature;humidity
46129;BME280;31860;45.186;5.790;2023-10-13T00:00:56;99513.09;;;20.64;77.19
46129;BME280;31860;45.186;5.790;2023-10-13T00:03:23;99510.50;;;20.62;77.19
46129;BME280;31860;45.186;5.790;2023-10-13T00:05:48;99506.16;;;20.60;77.43
46129;BME280;31860;45.186;5.790;2023-10-13T00:08:17;99510.69;;;20.56;77.44
46129;BME280;31860;45.186;5.790;2023-10-13T00:10:43;99515.13;;;20.56;77.71
46129;BME280;31860;45.186;5.790;2023-10-13T00:13:09;99518.72;;;20.55;77.74
46129;BME280;31860;45.186;5.790;2023-10-13T00:15:38;99510.78;;;20.53;78.21
46129;BME280;31860;45.186;5.790;2023-10-13T00:18:06;99509.00;;;20.54;77.61
46129;BME280;31860;45.186;5.790;2023-10-13T00:20:41;99517.94;;;20.51;77.95
46129;BME280;31860;45.186;5.790;2023-10-13T00:23:13;99520.72;;;20.48;78.21
46129;BME280;31860;45.186;5.790;2023-10-13T00:25:38;99516.28;;;20.49;77.78
46129;BME280;31860;45.186;5.790;2023-10-13T00:28:16;99523.44;;;20.47;78.00
46129;BME280;31860;45.186;5.790;2023-10-13T00:30:49;99526.97;;;20.46;78.40
46129;BME280;31860;45.186;5.790;2023-10-13T00:33:16;99534.09;;;20.45;78.84
46129;BME280;31860;45.186;5.790;2023-10-13T00:35:45;99525.41;;;20.40;78.30
46129;BME280;31860;45.186;5.790;2023-10-13T00:38:12;99526.44;;;20.36;78.02
46129;BME280;31860;45.186;5.790;2023-10-13T00:40:39;99522.19;;;20.32;78.36
46129;BME280;31860;45.186;5.790;2023-10-13T00:43:05;99520.53;;;20.28;79.38
46129;BME280;31860;45.186;5.790;2023-10-13T00:45:47;99518.78;;;20.27;79.92
46129;BME280;31860;45.186;5.790;2023-10-13T00:48:21;99519.72;;;20.26;80.79
46129;BME280;31860;45.186;5.790;2023-10-13T00:50:50;99514.41;;;20.26;80.69
46129;BME280;31860;45.186;5.790;2023-10-13T00:53:15;99515.31;;;20.25;80.42
46129;BME280;31860;45.186;5.790;2023-10-13T00:55:41;99519.66;;;20.28;79.88
46129;BME280;31860;45.186;5.790;2023-10-13T00:58:07;99518.84;;;20.26;80.03
46129;BME280;31860;45.186;5.790;2023-10-13T01:00:37;99519.78;;;20.25;80.71
46129;BME280;31860;45.186;5.790;2023-10-13T01:03:12;99519.88;;;20.22;82.36
46129;BME280;31860;45.186;5.790;2023-10-13T01:05:38;99514.63;;;20.20;82.54
46129;BME280;31860;45.186;5.790;2023-10-13T01:08:05;99522.56;;;20.20;82.67
46129;BME280;31860;45.186;5.790;2023-10-13T01:10:35;99520.84;;;20.19;82.54
46129;BME280;31860;45.186;5.790;2023-10-13T01:13:02;99524.50;;;20.15;82.56
46129;BME280;31860;45.186;5.790;2023-10-13T01:15:27;99521.88;;;20.14;82.68
46129;BME280;31860;45.186;5.790;2023-10-13T01:18:06;99510.66;;;20.06;84.16
46129;BME280;31860;45.186;5.790;2023-10-13T01:20:37;99517.06;;;19.99;83.38
46129;BME280;31860;45.186;5.790;2023-10-13T01:23:12;99514.59;;;19.94;84.12
46129;BME280;31860;45.186;5.790;2023-10-13T01:25:45;99509.47;;;19.88;84.58
46129;BME280;31860;45.186;5.790;2023-10-13T01:28:11;99509.59;;;19.85;85.18
46129;BME280;31860;45.186;5.790;2023-10-13T01:30:42;99509.66;;;19.82;85.26
46129;BME280;31860;45.186;5.790;2023-10-13T01:33:07;99514.13;;;19.81;85.02
46129;BME280;31860;45.186;5.790;2023-10-13T01:35:34;99506.19;;;19.80;84.99
46129;BME280;31860;45.186;5.790;2023-10-13T01:38:07;99506.19;;;19.80;84.22
46129;BME280;31860;45.186;5.790;2023-10-13T01:40:34;99501.81;;;19.79;84.29
46129;BME280;31860;45.186;5.790;2023-10-13T01:43:00;99494.75;;;19.78;84.29
46129;BME280;31860;45.186;5.790;2023-10-13T01:45:26;99493.09;;;19.75;84.24
46129;BME280;31860;45.186;5.790;2023-10-13T01:47:54;99486.09;;;19.73;83.93
46129;BME280;31860;45.186;5.790;2023-10-13T01:50:21;99490.53;;;19.72;83.50
46129;BME280;31860;45.186;5.790;2023-10-13T01:52:53;99495.94;;;19.69;82.64
46129;BME280;31860;45.186;5.790;2023-10-13T01:55:31;99486.25;;;19.68;81.74
46129;BME280;31860;45.186;5.790;2023-10-13T01:58:01;99488.03;;;19.68;81.08
46129;BME280;31860;45.186;5.790;2023-10-13T02:00:26;99487.22;;;19.66;81.21
46129;BME280;31860;45.186;5.790;2023-10-13T02:02:56;99482.81;;;19.66;80.43
46129;BME280;31860;45.186;5.790;2023-10-13T02:05:25;99479.34;;;19.64;80.12
46129;BME280;31860;45.186;5.790;2023-10-13T02:07:58;99481.09;;;19.64;80.02
46129;BME280;31860;45.186;5.790;2023-10-13T02:10:32;99481.03;;;19.65;79.26
46129;BME280;31860;45.186;5.790;2023-10-13T02:12:58;99474.84;;;19.66;79.56
46129;BME280;31860;45.186;5.790;2023-10-13T02:15:23;99478.25;;;19.70;79.38
46129;BME280;31860;45.186;5.790;2023-10-13T02:17:52;99476.50;;;19.69;79.35
46129;BME280;31860;45.186;5.790;2023-10-13T02:20:20;99476.47;;;19.70;79.02
46129;BME280;31860;45.186;5.790;2023-10-13T02:22:48;99482.63;;;19.71;78.90
46129;BME280;31860;45.186;5.790;2023-10-13T02:25:19;99475.63;;;19.70;79.52
46129;BME280;31860;45.186;5.790;2023-10-13T02:28:04;99486.25;;;19.68;79.94
46129;BME280;31860;45.186;5.790;2023-10-13T02:30:40;99472.13;;;19.68;79.80
46129;BME280;31860;45.186;5.790;2023-10-13T02:33:13;99473.97;;;19.66;79.69
46129;BME280;31860;45.186;5.790;2023-10-13T02:35:39;99466.06;;;19.64;79.99
46129;BME280;31860;45.186;5.790;2023-10-13T02:38:09;99470.44;;;19.65;80.00
46129;BME280;31860;45.186;5.790;2023-10-13T02:40:38;99468.63;;;19.67;79.71
46129;BME280;31860;45.186;5.790;2023-10-13T02:43:04;99471.25;;;19.67;79.27
46129;BME280;31860;45.186;5.790;2023-10-13T02:45:32;99471.25;;;19.67;78.86
46129;BME280;31860;45.186;5.790;2023-10-13T02:47:57;99471.38;;;19.64;78.97
46129;BME280;31860;45.186;5.790;2023-10-13T02:50:39;99466.97;;;19.63;79.27
46129;BME280;31860;45.186;5.790;2023-10-13T02:53:08;99467.16;;;19.59;79.17
46129;BME280;31860;45.186;5.790;2023-10-13T02:55:38;99469.00;;;19.55;80.38
46129;BME280;31860;45.186;5.790;2023-10-13T02:58:04;99459.28;;;19.56;80.66
46129;BME280;31860;45.186;5.790;2023-10-13T03:00:30;99466.25;;;19.58;80.75
46129;BME280;31860;45.186;5.790;2023-10-13T03:02:57;99468.09;;;19.56;80.58
46129;BME280;31860;45.186;5.790;2023-10-13T03:05:26;99464.56;;;19.56;80.64
46129;BME280;31860;45.186;5.790;2023-10-13T03:07:54;99465.44;;;19.56;80.13
46129;BME280;31860;45.186;5.790;2023-10-13T03:10:20;99461.03;;;19.55;79.95
46129;BME280;31860;45.186;5.790;2023-10-13T03:12:46;99463.81;;;19.52;80.12
46129;BME280;31860;45.186;5.790;2023-10-13T03:15:14;99460.38;;;19.49;80.04
46129;BME280;31860;45.186;5.790;2023-10-13T03:17:43;99468.41;;;19.47;80.22
46129;BME280;31860;45.186;5.790;2023-10-13T03:20:13;99465.00;;;19.42;80.54
46129;BME280;31860;45.186;5.790;2023-10-13T03:22:42;99464.19;;;19.40;80.46
46129;BME280;31860;45.186;5.790;2023-10-13T03:25:12;99461.56;;;19.39;80.68
46129;BME280;31860;45.186;5.790;2023-10-13T03:27:46;99461.69;;;19.36;80.67
46129;BME280;31860;45.186;5.790;2023-10-13T03:30:18;99462.69;;;19.32;80.69
46129;BME280;31860;45.186;5.790;2023-10-13T03:32:45;99463.56;;;19.31;80.95
46129;BME280;31860;45.186;5.790;2023-10-13T03:35:19;99468.06;;;19.29;80.78
46129;BME280;31860;45.186;5.790;2023-10-13T03:37:54;99464.63;;;19.25;81.38
46129;BME280;31860;45.186;5.790;2023-10-13T03:40:21;99463.84;;;19.22;81.24
46129;BME280;31860;45.186;5.790;2023-10-13T03:42:50;99457.66;;;19.23;81.88
46129;BME280;31860;45.186;5.790;2023-10-13T03:45:36;99461.19;;;19.22;81.91
46129;BME280;31860;45.186;5.790;2023-10-13T03:48:05;99456.81;;;19.21;81.84
46129;BME280;31860;45.186;5.790;2023-10-13T03:50:38;99452.44;;;19.20;82.31
46129;BME280;31860;45.186;5.790;2023-10-13T03:53:13;99451.59;;;19.18;81.90
46129;BME280;31860;45.186;5.790;2023-10-13T03:55:40;99449.94;;;19.15;81.93
46129;BME280;31860;45.186;5.790;2023-10-13T03:58:13;99450.00;;;19.14;82.26
46129;BME280;31860;45.186;5.790;2023-10-13T04:00:39;99457.13;;;19.10;82.43
46129;BME280;31860;45.186;5.790;2023-10-13T04:03:07;99446.66;;;19.07;82.58
46129;BME280;31860;45.186;5.790;2023-10-13T04:05:40;99453.81;;;19.04;83.07
46129;BME280;31860;45.186;5.790;2023-10-13T04:08:09;99452.22;;;18.98;83.63
46129;BME280;31860;45.186;5.790;2023-10-13T04:10:53;99456.63;;;18.98;84.10
46129;BME280;31860;45.186;5.790;2023-10-13T04:13:19;99459.34;;;18.96;84.58
46129;BME280;31860;45.186;5.790;2023-10-13T04:15:45;99457.63;;;18.93;84.76
46129;BME280;31860;45.186;5.790;2023-10-13T04:18:29;99455.03;;;18.92;85.07
46129;BME280;31860;45.186;5.790;2023-10-13T04:21:16;99453.31;;;18.91;86.04
46129;BME280;31860;45.186;5.790;2023-10-13T04:26:47;99449.97;;;18.84;88.02
46129;BME280;31860;45.186;5.790;2023-10-13T04:29:31;99434.13;;;18.83;89.17
46129;BME280;31860;45.186;5.790;2023-10-13T04:32:16;99433.31;;;18.81;89.27
46129;BME280;31860;45.186;5.790;2023-10-13T04:34:57;99442.97;;;18.83;89.52
46129;BME280;31860;45.186;5.790;2023-10-13T04:37:34;99442.16;;;18.80;89.68
46129;BME280;31860;45.186;5.790;2023-10-13T04:40:14;99436.13;;;18.75;90.22
46129;BME280;31860;45.186;5.790;2023-10-13T04:42:39;99436.09;;;18.76;90.45
46129;BME280;31860;45.186;5.790;2023-10-13T04:45:16;99432.59;;;18.76;90.88
46129;BME280;31860;45.186;5.790;2023-10-13T04:48:00;99430.84;;;18.75;91.18
46129;BME280;31860;45.186;5.790;2023-10-13T04:51:00;99430.72;;;18.79;90.05
46129;BME280;31860;45.186;5.790;2023-10-13T04:53:44;99432.38;;;18.82;89.38
46129;BME280;31860;45.186;5.790;2023-10-13T04:56:25;99430.56;;;18.84;89.42
46129;BME280;31860;45.186;5.790;2023-10-13T04:59:23;99429.56;;;18.88;88.94
46129;BME280;31860;45.186;5.790;2023-10-13T05:02:01;99425.03;;;18.91;88.45
46129;BME280;31860;45.186;5.790;2023-10-13T05:04:45;99425.91;;;18.92;87.84
46129;BME280;31860;45.186;5.790;2023-10-13T05:07:43;99423.31;;;18.90;87.28
46129;BME280;31860;45.186;5.790;2023-10-13T05:10:30;99426.03;;;18.87;86.33
46129;BME280;31860;45.186;5.790;2023-10-13T05:13:15;99427.19;;;18.79;85.90
46129;BME280;31860;45.186;5.790;2023-10-13T05:15:59;99422.91;;;18.75;86.11
46129;BME280;31860;45.186;5.790;2023-10-13T05:18:43;99432.72;;;18.71;86.67
46129;BME280;31860;45.186;5.790;2023-10-13T05:21:28;99429.25;;;18.69;87.21
46129;BME280;31860;45.186;5.790;2023-10-13T05:24:12;99428.47;;;18.66;87.94
46129;BME280;31860;45.186;5.790;2023-10-13T05:26:56;99419.75;;;18.62;88.25
46129;BME280;31860;45.186;5.790;2023-10-13T05:29:41;99426.09;;;18.57;88.21
46129;BME280;31860;45.186;5.790;2023-10-13T05:32:25;99438.53;;;18.53;90.81
46129;BME280;31860;45.186;5.790;2023-10-13T05:35:10;99426.31;;;18.48;87.75
46129;BME280;31860;45.186;5.790;2023-10-13T05:37:54;99427.25;;;18.47;87.34
46129;BME280;31860;45.186;5.790;2023-10-13T05:40:37;99427.34;;;18.44;86.73
46129;BME280;31860;45.186;5.790;2023-10-13T05:43:21;99431.84;;;18.39;87.75
46129;BME280;31860;45.186;5.790;2023-10-13T05:46:05;99438.09;;;18.36;88.68
46129;BME280;31860;45.186;5.790;2023-10-13T05:48:49;99439.09;;;18.32;90.28
46129;BME280;31860;45.186;5.790;2023-10-13T05:51:35;99435.56;;;18.32;90.34
46129;BME280;31860;45.186;5.790;2023-10-13T05:54:01;99438.28;;;18.30;90.91
46129;BME280;31860;45.186;5.790;2023-10-13T05:56:47;99434.78;;;18.28;92.29
46129;BME280;31860;45.186;5.790;2023-10-13T05:59:33;99434.78;;;18.28;91.72
46129;BME280;31860;45.186;5.790;2023-10-13T06:02:21;99441.91;;;18.26;91.86
46129;BME280;31860;45.186;5.790;2023-10-13T06:05:09;99446.31;;;18.26;92.07
46129;BME280;31860;45.186;5.790;2023-10-13T06:07:54;99446.28;;;18.27;92.23
46129;BME280;31860;45.186;5.790;2023-10-13T06:10:39;99448.91;;;18.27;92.67
46129;BME280;31860;45.186;5.790;2023-10-13T06:13:28;99455.13;;;18.26;92.17
46129;BME280;31860;45.186;5.790;2023-10-13T06:16:13;99459.50;;;18.27;92.56
46129;BME280;31860;45.186;5.790;2023-10-13T06:18:58;99463.06;;;18.26;92.36
46129;BME280;31860;45.186;5.790;2023-10-13T06:21:43;99463.94;;;18.27;95.45
46129;BME280;31860;45.186;5.790;2023-10-13T06:24:27;99464.88;;;18.24;91.73
46129;BME280;31860;45.186;5.790;2023-10-13T06:27:11;99469.34;;;18.22;92.22
46129;BME280;31860;45.186;5.790;2023-10-13T06:29:55;99475.50;;;18.23;91.62
46129;BME280;31860;45.186;5.790;2023-10-13T06:32:22;99477.16;;;18.25;91.36
46129;BME280;31860;45.186;5.790;2023-10-13T06:34:56;99479.88;;;18.24;92.02
46129;BME280;31860;45.186;5.790;2023-10-13T06:37:24;99483.34;;;18.26;92.42
46129;BME280;31860;45.186;5.790;2023-10-13T06:39:54;99478.94;;;18.26;92.83
46129;BME280;31860;45.186;5.790;2023-10-13T06:42:39;99485.94;;;18.27;92.44
46129;BME280;31860;45.186;5.790;2023-10-13T06:45:09;99490.38;;;18.27;92.67
46129;BME280;31860;45.186;5.790;2023-10-13T06:47:38;99485.94;;;18.27;93.08
46129;BME280;31860;45.186;5.790;2023-10-13T06:50:17;99481.56;;;18.26;93.19
46129;BME280;31860;45.186;5.790;2023-10-13T06:52:45;99478.88;;;18.28;93.53
46129;BME280;31860;45.186;5.790;2023-10-13T06:55:15;99492.16;;;18.26;94.97
46129;BME280;31860;45.186;5.790;2023-10-13T06:57:48;99491.22;;;18.27;99.39
46129;BME280;31860;45.186;5.790;2023-10-13T07:00:14;99482.56;;;18.22;95.64
46129;BME280;31860;45.186;5.790;2023-10-13T07:02:55;99496.59;;;18.24;95.71
46129;BME280;31860;45.186;5.790;2023-10-13T07:05:34;99501.84;;;18.26;96.27
46129;BME280;31860;45.186;5.790;2023-10-13T07:08:00;99496.50;;;18.27;96.36
46129;BME280;31860;45.186;5.790;2023-10-13T07:10:26;99502.63;;;18.29;95.79
46129;BME280;31860;45.186;5.790;2023-10-13T07:12:55;99503.31;;;18.37;95.52
46129;BME280;31860;45.186;5.790;2023-10-13T07:15:25;99503.00;;;18.51;94.53
46129;BME280;31860;45.186;5.790;2023-10-13T07:17:52;99502.47;;;18.69;93.64
46129;BME280;31860;45.186;5.790;2023-10-13T07:20:25;99504.63;;;18.87;92.29
46129;BME280;31860;45.186;5.790;2023-10-13T07:22:51;99498.88;;;19.02;89.87
46129;BME280;31860;45.186;5.790;2023-10-13T07:25:33;99501.94;;;19.18;88.39
46129;BME280;31860;45.186;5.790;2023-10-13T07:28:02;99506.81;;;19.33;87.20
46129;BME280;31860;45.186;5.790;2023-10-13T07:30:33;99500.97;;;19.51;89.28
46129;BME280;31860;45.186;5.790;2023-10-13T07:33:05;99510.34;;;19.61;84.91
46129;BME280;31860;45.186;5.790;2023-10-13T07:35:31;99507.19;;;19.76;83.53
46129;BME280;31860;45.186;5.790;2023-10-13T07:38:01;99502.34;;;19.90;82.07
46129;BME280;31860;45.186;5.790;2023-10-13T07:40:27;99496.59;;;20.04;81.28
46129;BME280;31860;45.186;5.790;2023-10-13T07:43:05;99494.16;;;20.24;80.25
46129;BME280;31860;45.186;5.790;2023-10-13T07:45:36;99500.72;;;20.38;78.41
46129;BME280;31860;45.186;5.790;2023-10-13T07:48:06;99501.94;;;20.54;76.87
46129;BME280;31860;45.186;5.790;2023-10-13T07:50:44;99502.34;;;20.67;74.71
46129;BME280;31860;45.186;5.790;2023-10-13T07:53:11;99493.88;;;20.81;74.16
46129;BME280;31860;45.186;5.790;2023-10-13T07:55:50;99495.06;;;20.97;72.18
46129;BME280;31860;45.186;5.790;2023-10-13T07:58:22;99493.66;;;21.11;71.23
46129;BME280;31860;45.186;5.790;2023-10-13T08:00:51;99495.00;;;21.23;70.53
46129;BME280;31860;45.186;5.790;2023-10-13T08:03:32;99491.00;;;21.34;69.36
46129;BME280;31860;45.186;5.790;2023-10-13T08:06:10;99495.75;;;21.48;69.12
46129;BME280;31860;45.186;5.790;2023-10-13T08:08:35;99493.66;;;21.56;68.51
46129;BME280;31860;45.186;5.790;2023-10-13T08:11:11;99489.66;;;21.67;68.09
46129;BME280;31860;45.186;5.790;2023-10-13T08:13:39;99480.31;;;21.79;67.85
46129;BME280;31860;45.186;5.790;2023-10-13T08:16:14;99484.31;;;21.91;67.33
46129;BME280;31860;45.186;5.790;2023-10-13T08:18:49;99483.00;;;22.01;66.95
46129;BME280;31860;45.186;5.790;2023-10-13T08:21:19;99479.91;;;22.11;66.40
46129;BME280;31860;45.186;5.790;2023-10-13T08:23:57;99477.72;;;22.21;66.39
46129;BME280;31860;45.186;5.790;2023-10-13T08:26:27;99476.44;;;22.29;65.02
46129;BME280;31860;45.186;5.790;2023-10-13T08:29:03;99476.19;;;22.35;64.40
46129;BME280;31860;45.186;5.790;2023-10-13T08:31:44;99471.41;;;22.43;63.80
46129;BME280;31860;45.186;5.790;2023-10-13T08:34:32;99469.53;;;22.45;62.90
46129;BME280;31860;45.186;5.790;2023-10-13T08:37:05;99462.19;;;22.50;62.54
46129;BME280;31860;45.186;5.790;2023-10-13T08:42:28;99460.69;;;22.65;62.11
46129;BME280;31860;45.186;5.790;2023-10-13T08:45:10;99459.53;;;22.71;60.24
46129;BME280;31860;45.186;5.790;2023-10-13T08:47:54;99462.88;;;22.76;59.48
46129;BME280;31860;45.186;5.790;2023-10-13T08:50:45;99455.69;;;22.78;58.85
46129;BME280;31860;45.186;5.790;2023-10-13T08:53:19;99461.75;;;22.81;58.73
46129;BME280;31860;45.186;5.790;2023-10-13T08:55:58;99457.25;;;22.82;58.56
46129;BME280;31860;45.186;5.790;2023-10-13T08:58:48;99453.75;;;22.81;57.84
46129;BME280;31860;45.186;5.790;2023-10-13T09:01:21;99453.75;;;22.81;57.75
46129;BME280;31860;45.186;5.790;2023-10-13T09:04:10;99456.34;;;22.83;58.49
46129;BME280;31860;45.186;5.790;2023-10-13T09:09:43;99449.50;;;22.77;57.99
46129;BME280;31860;45.186;5.790;2023-10-13T09:14:40;99443.50;;;22.72;58.08
46129;BME280;31860;45.186;5.790;2023-10-13T09:17:22;99433.06;;;22.68;57.44
46129;BME280;31860;45.186;5.790;2023-10-13T09:20:09;99436.63;;;22.67;57.19
46129;BME280;31860;45.186;5.790;2023-10-13T09:22:58;99426.94;;;22.66;56.67
46129;BME280;31860;45.186;5.790;2023-10-13T09:25:26;99428.66;;;22.67;56.50
46129;BME280;31860;45.186;5.790;2023-10-13T09:27:58;99425.97;;;22.67;56.56
46129;BME280;31860;45.186;5.790;2023-10-13T09:30:26;99425.00;;;22.69;56.53
46129;BME280;31860;45.186;5.790;2023-10-13T09:33:04;99420.47;;;22.71;55.92
46129;BME280;31860;45.186;5.790;2023-10-13T09:35:30;99416.09;;;22.70;55.97
46129;BME280;31860;45.186;5.790;2023-10-13T09:38:00;99416.84;;;22.72;55.97
46129;BME280;31860;45.186;5.790;2023-10-13T09:40:28;99418.41;;;22.78;55.95
46129;BME280;31860;45.186;5.790;2023-10-13T09:43:03;99411.13;;;22.81;55.40
46129;BME280;31860;45.186;5.790;2023-10-13T09:45:33;99406.44;;;22.86;55.00
46129;BME280;31860;45.186;5.790;2023-10-13T09:48:10;99410.63;;;22.92;54.55
46129;BME280;31860;45.186;5.790;2023-10-13T09:50:43;99400.69;;;22.95;54.12
46129;BME280;31860;45.186;5.790;2023-10-13T09:55:42;99394.69;;;23.09;53.65
46129;BME280;31860;45.186;5.790;2023-10-13T09:58:11;99390.69;;;23.19;53.70
46129;BME280;31860;45.186;5.790;2023-10-13T10:00:46;99386.59;;;23.30;53.55
46129;BME280;31860;45.186;5.790;2023-10-13T10:03:15;99379.34;;;23.51;52.49
46129;BME280;31860;45.186;5.790;2023-10-13T10:05:57;99373.13;;;24.03;50.59
46129;BME280;31860;45.186;5.790;2023-10-13T10:08:29;99363.94;;;25.22;48.11
46129;BME280;31860;45.186;5.790;2023-10-13T10:11:41;99361.34;;;25.52;45.86
46129;BME280;31860;45.186;5.790;2023-10-13T10:14:16;99352.03;;;26.18;46.12
46129;BME280;31860;45.186;5.790;2023-10-13T10:16:57;99348.06;;;27.37;45.01
46129;BME280;31860;45.186;5.790;2023-10-13T10:19:26;99331.84;;;30.34;39.53
46129;BME280;31860;45.186;5.790;2023-10-13T10:22:04;99323.94;;;33.94;31.82
46129;BME280;31860;45.186;5.790;2023-10-13T10:24:41;99320.78;;;35.99;30.55
46129;BME280;31860;45.186;5.790;2023-10-13T10:27:07;99324.69;;;37.49;28.70
46129;BME280;31860;45.186;5.790;2023-10-13T10:29:33;99322.03;;;38.70;27.38
46129;BME280;31860;45.186;5.790;2023-10-13T10:31:59;99313.66;;;39.80;26.27
46129;BME280;31860;45.186;5.790;2023-10-13T10:34:30;99300.94;;;40.76;23.43
46129;BME280;31860;45.186;5.790;2023-10-13T10:36:58;99296.09;;;41.72;23.82
46129;BME280;31860;45.186;5.790;2023-10-13T10:39:34;99293.09;;;42.58;20.82
46129;BME280;31860;45.186;5.790;2023-10-13T10:42:13;99288.66;;;43.38;22.30
46129;BME280;31860;45.186;5.790;2023-10-13T10:44:49;99283.97;;;44.12;21.61
46129;BME280;31860;45.186;5.790;2023-10-13T10:47:20;99276.06;;;44.81;21.24
46129;BME280;31860;45.186;5.790;2023-10-13T10:49:57;99283.88;;;45.41;20.14
46129;BME280;31860;45.186;5.790;2023-10-13T10:52:25;99271.25;;;45.96;19.04
46129;BME280;31860;45.186;5.790;2023-10-13T10:54:59;99272.00;;;46.52;17.17
46129;BME280;31860;45.186;5.790;2023-10-13T10:57:24;99262.81;;;47.01;18.57
46129;BME280;31860;45.186;5.790;2023-10-13T10:59:54;99260.97;;;47.43;18.06
46129;BME280;31860;45.186;5.790;2023-10-13T11:02:39;99253.78;;;47.95;17.39
46129;BME280;31860;45.186;5.790;2023-10-13T11:05:06;99238.28;;;48.28;16.72
46129;BME280;31860;45.186;5.790;2023-10-13T11:07:32;99242.03;;;48.69;16.49
46129;BME280;31860;45.186;5.790;2023-10-13T11:10:09;99236.63;;;49.13;13.97
46129;BME280;31860;45.186;5.790;2023-10-13T11:12:56;99233.09;;;49.58;13.88
46129;BME280;31860;45.186;5.790;2023-10-13T11:15:21;99226.81;;;49.95;15.41
46129;BME280;31860;45.186;5.790;2023-10-13T11:17:50;99226.28;;;50.32;13.80
46129;BME280;31860;45.186;5.790;2023-10-13T11:20:20;99221.31;;;50.72;14.50
46129;BME280;31860;45.186;5.790;2023-10-13T11:22:58;99210.94;;;51.10;14.20
46129;BME280;31860;45.186;5.790;2023-10-13T11:25:27;99217.91;;;51.30;13.89
46129;BME280;31860;45.186;5.790;2023-10-13T11:28:18;99204.22;;;51.50;12.42
46129;BME280;31860;45.186;5.790;2023-10-13T11:30:52;99202.31;;;51.82;13.38
46129;BME280;31860;45.186;5.790;2023-10-13T11:33:19;99190.00;;;52.15;13.17
46129;BME280;31860;45.186;5.790;2023-10-13T11:35:48;99179.31;;;52.48;13.10
46129;BME280;31860;45.186;5.790;2023-10-13T11:38:15;99178.03;;;52.66;12.21
46129;BME280;31860;45.186;5.790;2023-10-13T11:40:50;99178.44;;;53.00;12.74
46129;BME280;31860;45.186;5.790;2023-10-13T11:46:14;99162.38;;;53.47;11.98
46129;BME280;31860;45.186;5.790;2023-10-13T11:48:44;99148.44;;;53.72;10.60
46129;BME280;31860;45.186;5.790;2023-10-13T11:51:12;99155.13;;;54.06;11.20
46129;BME280;31860;45.186;5.790;2023-10-13T11:53:57;99153.66;;;54.24;11.21
46129;BME280;31860;45.186;5.790;2023-10-13T11:56:23;99144.09;;;54.45;11.07
46129;BME280;31860;45.186;5.790;2023-10-13T11:58:50;99140.97;;;54.67;11.08
46129;BME280;31860;45.186;5.790;2023-10-13T12:01:16;99137.19;;;54.96;11.35
46129;BME280;31860;45.186;5.790;2023-10-13T12:04:07;99130.81;;;55.29;11.30
46129;BME280;31860;45.186;5.790;2023-10-13T12:06:51;99126.69;;;55.56;10.99
46129;BME280;31860;45.186;5.790;2023-10-13T12:09:36;99121.13;;;55.79;10.79
46129;BME280;31860;45.186;5.790;2023-10-13T12:12:28;99113.59;;;56.03;10.65
46129;BME280;31860;45.186;5.790;2023-10-13T12:14:54;99106.31;;;56.31;10.87
46129;BME280;31860;45.186;5.790;2023-10-13T12:17:28;99101.31;;;56.47;10.47
46129;BME280;31860;45.186;5.790;2023-10-13T12:20:04;99085.78;;;56.73;9.99
46129;BME280;31860;45.186;5.790;2023-10-13T12:22:33;99089.34;;;56.83;10.76
46129;BME280;31860;45.186;5.790;2023-10-13T12:25:08;99078.44;;;56.95;10.85
46129;BME280;31860;45.186;5.790;2023-10-13T12:27:53;99078.59;;;57.23;10.46
46129;BME280;31860;45.186;5.790;2023-10-13T12:30:23;99073.81;;;57.42;9.99
46129;BME280;31860;45.186;5.790;2023-10-13T12:33:01;99072.66;;;57.75;10.02
46129;BME280;31860;45.186;5.790;2023-10-13T12:35:36;99068.78;;;57.84;9.74
46129;BME280;31860;45.186;5.790;2023-10-13T12:38:20;99065.78;;;57.94;10.09
46129;BME280;31860;45.186;5.790;2023-10-13T12:41:06;99061.81;;;57.95;9.10
46129;BME280;31860;45.186;5.790;2023-10-13T12:43:50;99045.91;;;58.05;9.57
46129;BME280;31860;45.186;5.790;2023-10-13T12:46:39;99036.72;;;58.26;9.56
46129;BME280;31860;45.186;5.790;2023-10-13T12:49:23;99037.50;;;58.54;9.42
46129;BME280;31860;45.186;5.790;2023-10-13T12:52:06;99021.34;;;58.59;9.23
46129;BME280;31860;45.186;5.790;2023-10-13T12:54:44;99011.72;;;58.47;8.57
46129;BME280;31860;45.186;5.790;2023-10-13T12:57:15;99010.06;;;58.59;8.57
46129;BME280;31860;45.186;5.790;2023-10-13T12:59:41;99006.72;;;58.93;8.82
46129;BME280;31860;45.186;5.790;2023-10-13T13:02:07;98997.44;;;59.15;8.84
46129;BME280;31860;45.186;5.790;2023-10-13T13:04:33;99001.81;;;59.29;8.95
46129;BME280;31860;45.186;5.790;2023-10-13T13:07:02;98987.84;;;59.46;8.36
46129;BME280;31860;45.186;5.790;2023-10-13T13:09:30;98988.34;;;59.48;8.60
46129;BME280;31860;45.186;5.790;2023-10-13T13:11:56;98991.34;;;59.52;8.38
46129;BME280;31860;45.186;5.790;2023-10-13T13:14:25;98979.41;;;57.90;8.84
46129;BME280;31860;45.186;5.790;2023-10-13T13:16:59;98970.72;;;58.41;8.90
46129;BME280;31860;45.186;5.790;2023-10-13T13:19:33;98964.75;;;58.56;7.46
46129;BME280;31860;45.186;5.790;2023-10-13T13:22:05;98964.19;;;58.54;8.36
46129;BME280;31860;45.186;5.790;2023-10-13T13:24:30;98963.47;;;58.62;8.38
46129;BME280;31860;45.186;5.790;2023-10-13T13:26:57;98950.25;;;58.71;8.31
46129;BME280;31860;45.186;5.790;2023-10-13T13:29:27;98939.97;;;58.66;8.40
46129;BME280;31860;45.186;5.790;2023-10-13T13:31:53;98941.38;;;58.55;8.06
46129;BME280;31860;45.186;5.790;2023-10-13T13:34:18;98961.69;;;58.52;7.17
46129;BME280;31860;45.186;5.790;2023-10-13T13:36:46;98943.97;;;58.03;7.05
46129;BME280;31860;45.186;5.790;2023-10-13T13:39:14;98942.06;;;57.57;6.79
46129;BME280;31860;45.186;5.790;2023-10-13T13:41:43;98931.84;;;57.48;6.08
46129;BME280;31860;45.186;5.790;2023-10-13T13:44:09;98927.00;;;57.21;6.68
46129;BME280;31860;45.186;5.790;2023-10-13T13:46:40;98917.41;;;56.90;6.52
46129;BME280;31860;45.186;5.790;2023-10-13T13:49:09;98919.59;;;56.61;6.61
46129;BME280;31860;45.186;5.790;2023-10-13T13:51:46;98920.06;;;56.07;6.58
46129;BME280;31860;45.186;5.790;2023-10-13T13:54:19;98913.69;;;53.70;6.97